首页
METAR-TAF:

METAR-TAF

机场 :

Hutchinson, 堪薩斯州, 美国

纬度: 38-04-05N, 经度: 097-51-38W, 海拔: 470米

当前天气观测

该预报发布于41分钟前的04:52 UTC
风速6节,风向北转东北
温度 26°C
湿度 74%
气压 1014 hPa
能見度: 16.1公里
天空无云

METAR: KHUT 230452Z AUTO 02006KT 10SM CLR 26/21 A2994 RMK AO2 SLP112 T02560211

时间: 00:33 (05:33 UTC)

预报

该预报发布于6小时和8分钟前的23:25 UTC
预报有效从23日的 00点(UTC)到 23日的 24点(UTC)
风速9节,风向西北
能見度: 10公里
散云层高于7000英尺
散云层高于15000英尺
从 23日的 0300点(UTC)
风速5节,风向多变
能見度: 10公里
少量云层高于20000英尺
从 23日的 2000点(UTC)
风速7节,风向南转南东
能見度: 10公里
散云层高于20000英尺

TAF: KHUT 222325Z 2300/2324 32009KT P6SM SCT070 SCT150 FM230300 VRB05KT P6SM FEW200 FM232000 15007KT P6SM SCT200

超过4000个机场的气象观测和天气预报(METAR&TAF报告)。

可查询的气象台以黄色和红色小点在地图上表示。

将鼠标移到小点上方,可查看气象台名称。

然后点击查看天气观测和预报。

如需切换地图:点击带黑十字的绿色按钮放大地图;点击带横线的绿色按钮缩小地图;或者点击绿色箭头查看邻近地区的地图。


METAR-TAF: